Flight Track Log - Related Links

Times and Time Zones

All times are in EDT time to prevent confusion due to time zone crossing. See the JBU33 flight status page for this flight to view local times or setup timezone preferences in your user account.

Time Position Orientation Groundspeed Altitude Reporting Facility
EDT Latitude Longitude Course Direction KTS MPH feet Rate Location/Type
Fri 03:00:00 PM 44.1444 -73.2709 195° South  Level FlightAware Approximate
Fri 03:00:16 PM 44.3956 -73.3089 196° South 270 311 9,600  Level Boston Center
Fri 03:01:00 PM 44.0634 -73.3011 194° South  Level FlightAware Approximate
Fri 03:01:16 PM 44.3119 -73.3336 192° South 288 331 11,800  Level Boston Center
Fri 03:02:00 PM 43.9818 -73.3283 194° South  Level FlightAware Approximate
Fri 03:02:16 PM 44.2200 -73.3614 192° South 328 377 14,100  Level Boston Center
Fri 03:03:00 PM 43.9004 -73.3565 196° South  Level FlightAware Approximate
Fri 03:03:16 PM 44.1219 -73.3944 194° South 352 405 17,000  Level Boston Center
Fri 03:04:00 PM 43.8198 -73.3889 196° South  Level FlightAware Approximate
Fri 03:04:16 PM 44.0217 -73.4247 192° South 362 417 18,700  Level Boston Center
Fri 03:05:00 PM 43.7392 -73.4212 196° South  Level FlightAware Approximate
Fri 03:05:16 PM 43.9172 -73.4575 193° South 377 434 21,100  Level Boston Center
Fri 03:06:16 PM 43.8211 -73.4847 192° South 392 451 23,100 1,800 Climbing Boston Center
Fri 03:07:16 PM 43.7103 -73.5200 193° South 397 457 24,700 1,600 Climbing Boston Center
Fri 03:08:16 PM 43.5975 -73.5525 192° South 407 468 26,300 1,550 Climbing Boston Center
Fri 03:09:16 PM 43.4783 -73.5903 193° South 423 487 27,800 850 Climbing Boston Center
Fri 03:10:16 PM 43.3592 -73.6139 188° South 430 495 28,000 100 Climbing Boston Center
Fri 03:11:16 PM 43.2342 -73.6283 185° South 443 510 28,000  Level Boston Center
Fri 03:12:16 PM 43.0881 -73.6483 186° South 465 535 28,000  Level Boston Center
Fri 03:13:16 PM 42.9606 -73.6658 186° South 470 541 28,000  Level Boston Center
Fri 03:14:16 PM 42.8356 -73.6831 186° South 470 541 28,000  Level Boston Center
Fri 03:15:16 PM 42.7081 -73.7003 186° South 464 534 28,000  Level Boston Center
Fri 03:16:16 PM 42.5767 -73.7144 185° South 464 534 28,000  Level Boston Center
Fri 03:17:16 PM 42.4494 -73.7317 186° South 464 534 28,000  Level Boston Center
Fri 03:18:16 PM 42.3178 -73.7486 185° South 464 534 28,000  Level Boston Center
Fri 03:19:16 PM 42.1906 -73.7628 185° South 464 534 28,000  Level Boston Center
Fri 03:20:16 PM 42.0611 -73.7822 186° South 464 534 28,000  Level Boston Center
Fri 03:21:16 PM 41.9375 -73.8328 197° South 464 534 28,000 -923 Level Boston Center
Fri 03:23:18 PM 41.6961 -73.9325 197° South 460 529 25,200 -1,615 Descending New York Center
Fri 03:24:18 PM 41.5825 -73.9797 197° South 454 522 23,100 -1,966 Descending New York Center
Fri 03:25:17 PM 41.4750 -74.0244 197° South 425 489 21,300 -1,563 Descending New York Center
Fri 03:26:17 PM 41.3736 -74.0775 201° Southwest 408 470 20,000 -645 Descending New York Center
Fri 03:27:18 PM 41.2839 -74.1506 211° Southwest 391 450 20,000  Level New York Center
Fri 03:28:16 PM 41.2217 -74.2192 220° Southwest 357 411 20,000 -353 Level New York Center
Fri 03:29:17 PM 41.1586 -74.3042 225° Southwest 341 392 19,300 -496 Descending New York Center
Fri 03:30:17 PM 41.0817 -74.3769 215° Southwest 319 367 19,000 -149 Descending New York Center
Fri 03:31:18 PM 41.0019 -74.3206 152° Southeast 275 316 19,000  Level New York Center
Fri 03:32:18 PM 40.9550 -74.2164 121° Southeast 301 346 19,000  Level New York Center
Fri 03:33:16 PM 40.8717 -74.1492 149° Southeast 335 386 19,000 -162 Level New York Center
Fri 03:33:32 PM 40.8333 -74.1333 163° South 350 403 18,800 -947 Descending New York TRACON
Fri 03:34:32 PM 40.7500 -74.0833 156° South 345 397 17,800 -100 Descending New York TRACON
Fri 03:35:32 PM 40.6667 -74.0333 156° South 354 407 18,600 -300 Climbing New York TRACON
Fri 03:36:32 PM 40.5833 -73.9667 149° Southeast 359 413 17,200 -1,700 Descending New York TRACON
Fri 03:37:32 PM 40.5000 -73.9167 155° Southeast 336 387 15,200 -2,050 Descending New York TRACON
Fri 03:38:32 PM 40.4167 -73.8500 149° Southeast 317 365 13,100 -2,150 Descending New York TRACON
Fri 03:39:32 PM 40.3500 -73.8000 150° Southeast 303 349 10,900 -2,250 Descending New York TRACON
Fri 03:40:32 PM 40.2667 -73.8000 180° South 285 328 8,600 -2,300 Descending New York TRACON
Fri 03:41:32 PM 40.2333 -73.7167 118° Southeast 301 346 6,300 -2,050 Descending New York TRACON
Fri 03:42:32 PM 40.2833 -73.6667 37° Northeast 268 308 4,500 -1,600 Descending New York TRACON
Fri 03:43:32 PM 40.3500 -73.6167 30° Northeast 265 305 3,100 -849 Descending New York TRACON
Fri 03:44:18 PM 40.3906 -73.5886 28° Northeast 252 290 3,000 -635 Descending New York Center
Fri 03:45:16 PM 40.4339 -73.5250 48° Northeast 218 251 2,000 -469 Descending New York Center
Fri 03:46:26 PM 40.4667 -73.4500 60° Northeast 209 241 2,000  Level New York TRACON
Fri 03:47:32 PM 40.5167 -73.4833 333° Northwest 195 224 2,000  Level New York TRACON
Fri 03:48:32 PM 40.5500 -73.5500 303° West 193 222 2,000  Level New York TRACON
Fri 03:49:26 PM 40.5667 -73.6000 294° West 179 206 2,000 -53 Level New York TRACON
Fri 03:50:26 PM 40.6000 -73.6500 311° West 170 196 1,900 -450 Descending New York TRACON
Fri 03:51:26 PM 40.6167 -73.7000 294° West 128 147 1,100 -800 Descending New York TRACON

Login

Don't have an account? Register now (free) for customized features, flight alerts, and more!